sensor_id;sensor_type;location;lat;lon;timestamp;P1;durP1;ratioP1;P2;durP2;ratioP2
6832;SDS011;3454;42.654;23.378;2023-04-25T00:00:20;2.97;;;2.40;;
6832;SDS011;3454;42.654;23.378;2023-04-25T00:02:46;3.23;;;2.90;;
6832;SDS011;3454;42.654;23.378;2023-04-25T00:05:11;4.27;;;3.00;;
6832;SDS011;3454;42.654;23.378;2023-04-25T00:07:39;3.63;;;2.73;;
6832;SDS011;3454;42.654;23.378;2023-04-25T00:10:07;3.97;;;2.83;;
6832;SDS011;3454;42.654;23.378;2023-04-25T00:12:33;6.53;;;3.67;;
6832;SDS011;3454;42.654;23.378;2023-04-25T00:14:58;3.90;;;3.43;;
6832;SDS011;3454;42.654;23.378;2023-04-25T00:17:24;3.77;;;3.10;;
6832;SDS011;3454;42.654;23.378;2023-04-25T00:19:50;3.63;;;3.13;;
6832;SDS011;3454;42.654;23.378;2023-04-25T00:22:16;3.40;;;2.93;;
6832;SDS011;3454;42.654;23.378;2023-04-25T00:24:42;3.70;;;3.17;;
6832;SDS011;3454;42.654;23.378;2023-04-25T00:27:08;3.90;;;3.10;;
6832;SDS011;3454;42.654;23.378;2023-04-25T00:29:33;5.27;;;3.50;;
6832;SDS011;3454;42.654;23.378;2023-04-25T00:31:59;3.70;;;3.27;;
6832;SDS011;3454;42.654;23.378;2023-04-25T00:34:25;4.00;;;3.50;;
6832;SDS011;3454;42.654;23.378;2023-04-25T00:36:50;5.00;;;3.50;;
6832;SDS011;3454;42.654;23.378;2023-04-25T00:39:16;4.27;;;3.87;;
6832;SDS011;3454;42.654;23.378;2023-04-25T00:41:41;4.63;;;3.27;;
6832;SDS011;3454;42.654;23.378;2023-04-25T00:44:08;4.63;;;3.97;;
6832;SDS011;3454;42.654;23.378;2023-04-25T00:46:36;5.57;;;3.33;;
6832;SDS011;3454;42.654;23.378;2023-04-25T00:49:02;5.70;;;3.33;;
6832;SDS011;3454;42.654;23.378;2023-04-25T00:51:27;5.33;;;3.73;;
6832;SDS011;3454;42.654;23.378;2023-04-25T00:53:53;5.83;;;3.80;;
6832;SDS011;3454;42.654;23.378;2023-04-25T00:56:19;3.40;;;2.93;;
6832;SDS011;3454;42.654;23.378;2023-04-25T00:58:45;3.80;;;3.30;;
6832;SDS011;3454;42.654;23.378;2023-04-25T01:01:10;4.20;;;3.30;;
6832;SDS011;3454;42.654;23.378;2023-04-25T01:03:37;5.27;;;3.37;;
6832;SDS011;3454;42.654;23.378;2023-04-25T01:06:10;5.30;;;3.43;;
6832;SDS011;3454;42.654;23.378;2023-04-25T01:08:36;3.93;;;3.40;;
6832;SDS011;3454;42.654;23.378;2023-04-25T01:11:03;4.93;;;3.00;;
6832;SDS011;3454;42.654;23.378;2023-04-25T01:13:29;4.37;;;3.20;;
6832;SDS011;3454;42.654;23.378;2023-04-25T01:15:56;3.30;;;2.97;;
6832;SDS011;3454;42.654;23.378;2023-04-25T01:18:22;3.40;;;2.63;;
6832;SDS011;3454;42.654;23.378;2023-04-25T01:20:49;3.80;;;2.90;;
6832;SDS011;3454;42.654;23.378;2023-04-25T01:23:16;4.33;;;3.00;;
6832;SDS011;3454;42.654;23.378;2023-04-25T01:25:43;3.40;;;2.60;;
6832;SDS011;3454;42.654;23.378;2023-04-25T01:28:09;3.67;;;2.70;;
6832;SDS011;3454;42.654;23.378;2023-04-25T01:30:42;3.50;;;2.73;;
6832;SDS011;3454;42.654;23.378;2023-04-25T01:33:08;3.53;;;2.83;;
6832;SDS011;3454;42.654;23.378;2023-04-25T01:35:34;4.93;;;3.00;;
6832;SDS011;3454;42.654;23.378;2023-04-25T01:37:59;3.40;;;3.03;;
6832;SDS011;3454;42.654;23.378;2023-04-25T01:40:25;3.90;;;3.27;;
6832;SDS011;3454;42.654;23.378;2023-04-25T01:42:59;3.07;;;2.70;;
6832;SDS011;3454;42.654;23.378;2023-04-25T01:45:24;4.00;;;2.80;;
6832;SDS011;3454;42.654;23.378;2023-04-25T01:47:50;3.33;;;2.67;;
6832;SDS011;3454;42.654;23.378;2023-04-25T01:50:19;5.10;;;3.37;;
6832;SDS011;3454;42.654;23.378;2023-04-25T01:52:45;3.40;;;2.93;;
6832;SDS011;3454;42.654;23.378;2023-04-25T01:55:10;3.27;;;2.97;;
6832;SDS011;3454;42.654;23.378;2023-04-25T01:57:36;4.27;;;3.17;;
6832;SDS011;3454;42.654;23.378;2023-04-25T02:00:03;3.33;;;3.03;;
6832;SDS011;3454;42.654;23.378;2023-04-25T02:02:30;3.73;;;3.33;;
6832;SDS011;3454;42.654;23.378;2023-04-25T02:04:55;3.90;;;3.50;;
6832;SDS011;3454;42.654;23.378;2023-04-25T02:07:21;4.07;;;3.57;;
6832;SDS011;3454;42.654;23.378;2023-04-25T02:09:46;3.70;;;3.30;;
6832;SDS011;3454;42.654;23.378;2023-04-25T02:12:13;3.83;;;3.27;;
6832;SDS011;3454;42.654;23.378;2023-04-25T02:14:38;5.00;;;3.50;;
6832;SDS011;3454;42.654;23.378;2023-04-25T02:17:04;8.03;;;3.30;;
6832;SDS011;3454;42.654;23.378;2023-04-25T02:19:30;4.67;;;3.60;;
6832;SDS011;3454;42.654;23.378;2023-04-25T02:21:56;5.17;;;3.33;;
6832;SDS011;3454;42.654;23.378;2023-04-25T02:24:22;4.20;;;3.67;;
6832;SDS011;3454;42.654;23.378;2023-04-25T02:26:48;5.07;;;3.50;;
6832;SDS011;3454;42.654;23.378;2023-04-25T02:29:14;4.60;;;4.13;;
6832;SDS011;3454;42.654;23.378;2023-04-25T02:31:40;4.10;;;3.70;;
6832;SDS011;3454;42.654;23.378;2023-04-25T02:34:05;4.67;;;3.57;;
6832;SDS011;3454;42.654;23.378;2023-04-25T02:36:31;4.40;;;4.00;;
6832;SDS011;3454;42.654;23.378;2023-04-25T02:38:59;4.33;;;3.63;;
6832;SDS011;3454;42.654;23.378;2023-04-25T02:41:25;4.30;;;3.50;;
6832;SDS011;3454;42.654;23.378;2023-04-25T02:43:51;4.20;;;3.47;;
6832;SDS011;3454;42.654;23.378;2023-04-25T02:46:16;5.00;;;3.83;;
6832;SDS011;3454;42.654;23.378;2023-04-25T02:48:42;3.87;;;3.53;;
6832;SDS011;3454;42.654;23.378;2023-04-25T02:51:07;3.87;;;3.20;;
6832;SDS011;3454;42.654;23.378;2023-04-25T02:53:32;3.77;;;3.43;;
6832;SDS011;3454;42.654;23.378;2023-04-25T02:55:58;3.80;;;3.30;;
6832;SDS011;3454;42.654;23.378;2023-04-25T02:58:24;4.87;;;3.33;;
6832;SDS011;3454;42.654;23.378;2023-04-25T03:00:49;4.40;;;3.77;;
6832;SDS011;3454;42.654;23.378;2023-04-25T03:03:15;3.77;;;3.10;;
6832;SDS011;3454;42.654;23.378;2023-04-25T03:05:42;3.23;;;2.93;;
6832;SDS011;3454;42.654;23.378;2023-04-25T03:08:08;4.63;;;4.23;;
6832;SDS011;3454;42.654;23.378;2023-04-25T03:10:34;4.43;;;4.00;;
6832;SDS011;3454;42.654;23.378;2023-04-25T03:12:59;3.70;;;3.17;;
6832;SDS011;3454;42.654;23.378;2023-04-25T03:15:24;5.57;;;4.00;;
6832;SDS011;3454;42.654;23.378;2023-04-25T03:17:50;5.03;;;3.50;;
6832;SDS011;3454;42.654;23.378;2023-04-25T03:20:16;4.83;;;4.27;;
6832;SDS011;3454;42.654;23.378;2023-04-25T03:22:41;5.17;;;3.80;;
6832;SDS011;3454;42.654;23.378;2023-04-25T03:25:07;3.70;;;3.40;;
6832;SDS011;3454;42.654;23.378;2023-04-25T03:27:32;5.03;;;3.77;;
6832;SDS011;3454;42.654;23.378;2023-04-25T03:29:58;6.43;;;4.17;;
6832;SDS011;3454;42.654;23.378;2023-04-25T03:32:24;5.47;;;4.13;;
6832;SDS011;3454;42.654;23.378;2023-04-25T03:34:49;4.37;;;3.83;;
6832;SDS011;3454;42.654;23.378;2023-04-25T03:37:15;4.43;;;3.87;;
6832;SDS011;3454;42.654;23.378;2023-04-25T03:39:40;7.93;;;4.80;;
6832;SDS011;3454;42.654;23.378;2023-04-25T03:42:05;5.70;;;4.43;;
6832;SDS011;3454;42.654;23.378;2023-04-25T03:44:31;8.03;;;4.50;;
6832;SDS011;3454;42.654;23.378;2023-04-25T03:46:56;5.37;;;4.87;;
6832;SDS011;3454;42.654;23.378;2023-04-25T03:49:22;9.60;;;5.40;;
6832;SDS011;3454;42.654;23.378;2023-04-25T03:51:49;7.37;;;4.90;;
6832;SDS011;3454;42.654;23.378;2023-04-25T03:54:15;7.30;;;5.07;;
6832;SDS011;3454;42.654;23.378;2023-04-25T03:56:40;35.40;;;21.07;;
6832;SDS011;3454;42.654;23.378;2023-04-25T03:59:06;12.63;;;5.43;;
6832;SDS011;3454;42.654;23.378;2023-04-25T04:01:31;6.13;;;5.23;;
6832;SDS011;3454;42.654;23.378;2023-04-25T04:03:56;11.43;;;6.10;;
6832;SDS011;3454;42.654;23.378;2023-04-25T04:06:22;7.70;;;6.20;;
6832;SDS011;3454;42.654;23.378;2023-04-25T04:08:47;12.87;;;8.63;;
6832;SDS011;3454;42.654;23.378;2023-04-25T04:11:13;7.43;;;6.60;;
6832;SDS011;3454;42.654;23.378;2023-04-25T04:13:38;10.33;;;6.13;;
6832;SDS011;3454;42.654;23.378;2023-04-25T04:16:04;10.17;;;6.47;;
6832;SDS011;3454;42.654;23.378;2023-04-25T04:18:29;11.20;;;7.23;;
6832;SDS011;3454;42.654;23.378;2023-04-25T04:20:55;8.70;;;6.67;;
6832;SDS011;3454;42.654;23.378;2023-04-25T04:23:22;9.07;;;6.13;;
6832;SDS011;3454;42.654;23.378;2023-04-25T04:25:48;10.40;;;6.70;;
6832;SDS011;3454;42.654;23.378;2023-04-25T04:28:14;12.47;;;6.73;;
6832;SDS011;3454;42.654;23.378;2023-04-25T04:30:39;8.97;;;7.47;;
6832;SDS011;3454;42.654;23.378;2023-04-25T04:33:06;9.07;;;5.73;;
6832;SDS011;3454;42.654;23.378;2023-04-25T04:35:32;6.67;;;5.10;;
6832;SDS011;3454;42.654;23.378;2023-04-25T04:37:58;8.17;;;5.87;;
6832;SDS011;3454;42.654;23.378;2023-04-25T04:40:23;6.43;;;5.83;;
6832;SDS011;3454;42.654;23.378;2023-04-25T04:42:50;7.30;;;5.67;;
6832;SDS011;3454;42.654;23.378;2023-04-25T04:45:16;7.37;;;5.10;;
6832;SDS011;3454;42.654;23.378;2023-04-25T04:47:41;7.00;;;5.40;;
6832;SDS011;3454;42.654;23.378;2023-04-25T04:50:08;5.87;;;5.33;;
6832;SDS011;3454;42.654;23.378;2023-04-25T04:52:35;7.03;;;5.07;;
6832;SDS011;3454;42.654;23.378;2023-04-25T04:55:04;6.37;;;4.73;;
6832;SDS011;3454;42.654;23.378;2023-04-25T04:57:30;6.13;;;4.63;;
6832;SDS011;3454;42.654;23.378;2023-04-25T04:59:57;10.07;;;6.77;;
6832;SDS011;3454;42.654;23.378;2023-04-25T05:02:23;6.83;;;4.27;;
6832;SDS011;3454;42.654;23.378;2023-04-25T05:04:49;5.00;;;4.50;;
6832;SDS011;3454;42.654;23.378;2023-04-25T05:07:16;9.03;;;4.70;;
6832;SDS011;3454;42.654;23.378;2023-04-25T05:09:42;5.30;;;4.20;;
6832;SDS011;3454;42.654;23.378;2023-04-25T05:12:07;5.70;;;4.17;;
6832;SDS011;3454;42.654;23.378;2023-04-25T05:14:33;6.17;;;5.33;;
6832;SDS011;3454;42.654;23.378;2023-04-25T05:16:58;9.90;;;7.10;;
6832;SDS011;3454;42.654;23.378;2023-04-25T05:19:24;8.83;;;5.17;;
6832;SDS011;3454;42.654;23.378;2023-04-25T05:21:50;7.07;;;5.67;;
6832;SDS011;3454;42.654;23.378;2023-04-25T05:24:15;7.67;;;6.23;;
6832;SDS011;3454;42.654;23.378;2023-04-25T05:26:41;7.53;;;6.07;;
6832;SDS011;3454;42.654;23.378;2023-04-25T05:29:06;6.60;;;5.80;;
6832;SDS011;3454;42.654;23.378;2023-04-25T05:31:32;5.77;;;5.13;;
6832;SDS011;3454;42.654;23.378;2023-04-25T05:33:58;6.60;;;5.37;;
6832;SDS011;3454;42.654;23.378;2023-04-25T05:36:23;7.13;;;5.43;;
6832;SDS011;3454;42.654;23.378;2023-04-25T05:38:49;6.80;;;5.63;;
6832;SDS011;3454;42.654;23.378;2023-04-25T05:41:14;7.13;;;6.00;;
6832;SDS011;3454;42.654;23.378;2023-04-25T05:43:40;7.10;;;5.23;;
6832;SDS011;3454;42.654;23.378;2023-04-25T05:46:10;6.33;;;5.73;;
6832;SDS011;3454;42.654;23.378;2023-04-25T05:48:36;6.47;;;5.67;;
6832;SDS011;3454;42.654;23.378;2023-04-25T05:51:01;6.60;;;5.67;;
6832;SDS011;3454;42.654;23.378;2023-04-25T05:53:26;8.43;;;6.77;;
6832;SDS011;3454;42.654;23.378;2023-04-25T05:55:52;7.00;;;4.90;;
6832;SDS011;3454;42.654;23.378;2023-04-25T05:58:17;5.90;;;5.17;;
6832;SDS011;3454;42.654;23.378;2023-04-25T06:00:43;6.27;;;5.60;;
6832;SDS011;3454;42.654;23.378;2023-04-25T06:03:09;6.83;;;5.43;;
6832;SDS011;3454;42.654;23.378;2023-04-25T06:05:35;6.20;;;5.27;;
6832;SDS011;3454;42.654;23.378;2023-04-25T06:08:01;5.93;;;5.03;;
6832;SDS011;3454;42.654;23.378;2023-04-25T06:10:26;6.77;;;5.17;;
6832;SDS011;3454;42.654;23.378;2023-04-25T06:12:51;6.55;;;5.43;;
6832;SDS011;3454;42.654;23.378;2023-04-25T06:15:17;5.18;;;4.68;;
6832;SDS011;3454;42.654;23.378;2023-04-25T06:17:42;7.13;;;5.90;;
6832;SDS011;3454;42.654;23.378;2023-04-25T06:20:08;6.27;;;5.10;;
6832;SDS011;3454;42.654;23.378;2023-04-25T06:22:34;6.43;;;4.90;;
6832;SDS011;3454;42.654;23.378;2023-04-25T06:25:02;7.03;;;5.07;;
6832;SDS011;3454;42.654;23.378;2023-04-25T06:27:29;8.77;;;5.27;;
6832;SDS011;3454;42.654;23.378;2023-04-25T06:29:55;5.67;;;4.87;;
6832;SDS011;3454;42.654;23.378;2023-04-25T06:32:20;6.23;;;4.47;;
6832;SDS011;3454;42.654;23.378;2023-04-25T06:34:46;6.97;;;5.20;;
6832;SDS011;3454;42.654;23.378;2023-04-25T06:37:11;11.10;;;4.80;;
6832;SDS011;3454;42.654;23.378;2023-04-25T06:39:37;5.70;;;4.80;;
6832;SDS011;3454;42.654;23.378;2023-04-25T06:42:02;7.10;;;5.00;;
6832;SDS011;3454;42.654;23.378;2023-04-25T06:44:28;10.37;;;4.97;;
6832;SDS011;3454;42.654;23.378;2023-04-25T06:46:54;7.25;;;5.20;;
6832;SDS011;3454;42.654;23.378;2023-04-25T06:49:19;6.47;;;4.80;;
6832;SDS011;3454;42.654;23.378;2023-04-25T06:51:45;6.57;;;5.10;;
6832;SDS011;3454;42.654;23.378;2023-04-25T06:54:10;6.90;;;5.43;;
6832;SDS011;3454;42.654;23.378;2023-04-25T06:56:36;4.63;;;4.03;;
6832;SDS011;3454;42.654;23.378;2023-04-25T06:59:01;6.57;;;4.15;;
6832;SDS011;3454;42.654;23.378;2023-04-25T07:01:27;4.67;;;3.80;;
6832;SDS011;3454;42.654;23.378;2023-04-25T07:03:52;4.55;;;3.47;;
6832;SDS011;3454;42.654;23.378;2023-04-25T07:06:17;4.45;;;3.60;;
6832;SDS011;3454;42.654;23.378;2023-04-25T07:08:43;7.78;;;4.68;;
6832;SDS011;3454;42.654;23.378;2023-04-25T07:11:08;6.80;;;4.22;;
6832;SDS011;3454;42.654;23.378;2023-04-25T07:13:34;5.07;;;3.75;;
6832;SDS011;3454;42.654;23.378;2023-04-25T07:15:59;5.97;;;4.82;;
6832;SDS011;3454;42.654;23.378;2023-04-25T07:18:25;6.73;;;4.57;;
6832;SDS011;3454;42.654;23.378;2023-04-25T07:20:50;6.97;;;4.15;;
6832;SDS011;3454;42.654;23.378;2023-04-25T07:23:16;8.73;;;5.67;;
6832;SDS011;3454;42.654;23.378;2023-04-25T07:25:41;6.95;;;3.88;;
6832;SDS011;3454;42.654;23.378;2023-04-25T07:28:06;7.25;;;4.30;;
6832;SDS011;3454;42.654;23.378;2023-04-25T07:30:32;9.25;;;4.57;;
6832;SDS011;3454;42.654;23.378;2023-04-25T07:32:58;7.70;;;4.25;;
6832;SDS011;3454;42.654;23.378;2023-04-25T07:35:24;5.97;;;4.18;;
6832;SDS011;3454;42.654;23.378;2023-04-25T07:37:49;6.95;;;4.82;;
6832;SDS011;3454;42.654;23.378;2023-04-25T07:40:15;6.10;;;4.13;;
6832;SDS011;3454;42.654;23.378;2023-04-25T07:42:41;7.28;;;4.25;;
6832;SDS011;3454;42.654;23.378;2023-04-25T07:45:07;6.28;;;4.93;;
6832;SDS011;3454;42.654;23.378;2023-04-25T07:47:32;6.55;;;4.65;;
6832;SDS011;3454;42.654;23.378;2023-04-25T07:49:58;8.63;;;4.60;;
6832;SDS011;3454;42.654;23.378;2023-04-25T07:52:23;5.72;;;4.55;;
6832;SDS011;3454;42.654;23.378;2023-04-25T07:54:49;7.13;;;4.93;;
6832;SDS011;3454;42.654;23.378;2023-04-25T07:57:14;6.60;;;5.00;;
6832;SDS011;3454;42.654;23.378;2023-04-25T07:59:39;7.82;;;5.28;;
6832;SDS011;3454;42.654;23.378;2023-04-25T08:02:05;6.28;;;5.13;;
6832;SDS011;3454;42.654;23.378;2023-04-25T08:04:30;9.18;;;5.00;;
6832;SDS011;3454;42.654;23.378;2023-04-25T08:06:56;9.40;;;5.20;;
6832;SDS011;3454;42.654;23.378;2023-04-25T08:09:21;9.82;;;5.15;;
6832;SDS011;3454;42.654;23.378;2023-04-25T08:11:47;6.82;;;4.82;;
6832;SDS011;3454;42.654;23.378;2023-04-25T08:14:13;6.85;;;5.30;;
6832;SDS011;3454;42.654;23.378;2023-04-25T08:16:39;10.95;;;4.70;;
6832;SDS011;3454;42.654;23.378;2023-04-25T08:19:04;7.50;;;4.32;;
6832;SDS011;3454;42.654;23.378;2023-04-25T08:21:30;5.03;;;4.25;;
6832;SDS011;3454;42.654;23.378;2023-04-25T08:23:56;11.95;;;4.82;;
6832;SDS011;3454;42.654;23.378;2023-04-25T08:26:23;7.90;;;5.00;;
6832;SDS011;3454;42.654;23.378;2023-04-25T08:28:49;7.18;;;4.78;;
6832;SDS011;3454;42.654;23.378;2023-04-25T08:31:15;5.45;;;4.63;;
6832;SDS011;3454;42.654;23.378;2023-04-25T08:33:41;5.38;;;4.00;;
6832;SDS011;3454;42.654;23.378;2023-04-25T08:36:07;8.73;;;4.45;;
6832;SDS011;3454;42.654;23.378;2023-04-25T08:38:32;6.63;;;3.70;;
6832;SDS011;3454;42.654;23.378;2023-04-25T08:40:58;6.80;;;3.63;;
6832;SDS011;3454;42.654;23.378;2023-04-25T08:43:26;6.90;;;3.67;;
6832;SDS011;3454;42.654;23.378;2023-04-25T08:45:54;7.80;;;4.75;;
6832;SDS011;3454;42.654;23.378;2023-04-25T08:48:25;5.35;;;4.57;;
6832;SDS011;3454;42.654;23.378;2023-04-25T08:50:56;7.18;;;4.70;;
6832;SDS011;3454;42.654;23.378;2023-04-25T08:53:27;6.07;;;3.03;;
6832;SDS011;3454;42.654;23.378;2023-04-25T08:55:55;4.68;;;2.40;;
6832;SDS011;3454;42.654;23.378;2023-04-25T08:58:22;4.68;;;2.70;;
6832;SDS011;3454;42.654;23.378;2023-04-25T09:00:49;4.00;;;2.63;;
6832;SDS011;3454;42.654;23.378;2023-04-25T09:03:16;5.00;;;3.00;;
6832;SDS011;3454;42.654;23.378;2023-04-25T09:05:42;6.63;;;5.47;;
6832;SDS011;3454;42.654;23.378;2023-04-25T09:08:08;9.23;;;5.63;;
6832;SDS011;3454;42.654;23.378;2023-04-25T09:10:33;4.95;;;4.55;;
6832;SDS011;3454;42.654;23.378;2023-04-25T09:13:06;11.77;;;8.35;;
6832;SDS011;3454;42.654;23.378;2023-04-25T09:15:58;11.20;;;7.10;;
6832;SDS011;3454;42.654;23.378;2023-04-25T09:18:24;7.82;;;7.03;;
6832;SDS011;3454;42.654;23.378;2023-04-25T09:20:51;6.90;;;5.65;;
6832;SDS011;3454;42.654;23.378;2023-04-25T09:23:18;8.02;;;5.95;;
6832;SDS011;3454;42.654;23.378;2023-04-25T09:25:52;7.68;;;5.07;;
6832;SDS011;3454;42.654;23.378;2023-04-25T09:28:25;6.53;;;5.15;;
6832;SDS011;3454;42.654;23.378;2023-04-25T09:30:56;7.10;;;5.10;;
6832;SDS011;3454;42.654;23.378;2023-04-25T09:33:26;9.88;;;5.43;;
6832;SDS011;3454;42.654;23.378;2023-04-25T09:35:54;11.38;;;5.03;;
6832;SDS011;3454;42.654;23.378;2023-04-25T09:38:26;7.00;;;4.70;;
6832;SDS011;3454;42.654;23.378;2023-04-25T09:40:51;5.43;;;4.57;;
6832;SDS011;3454;42.654;23.378;2023-04-25T09:43:20;6.40;;;4.35;;
6832;SDS011;3454;42.654;23.378;2023-04-25T09:45:46;6.38;;;4.75;;
6832;SDS011;3454;42.654;23.378;2023-04-25T09:48:19;5.85;;;4.15;;
6832;SDS011;3454;42.654;23.378;2023-04-25T09:50:45;6.78;;;4.65;;
6832;SDS011;3454;42.654;23.378;2023-04-25T09:53:28;5.43;;;4.40;;
6832;SDS011;3454;42.654;23.378;2023-04-25T09:55:54;6.38;;;4.50;;
6832;SDS011;3454;42.654;23.378;2023-04-25T09:58:21;6.05;;;4.60;;
6832;SDS011;3454;42.654;23.378;2023-04-25T10:00:49;4.97;;;3.88;;
6832;SDS011;3454;42.654;23.378;2023-04-25T10:03:15;5.60;;;4.18;;
6832;SDS011;3454;42.654;23.378;2023-04-25T10:05:43;6.50;;;4.15;;
6832;SDS011;3454;42.654;23.378;2023-04-25T10:08:08;5.15;;;3.40;;
6832;SDS011;3454;42.654;23.378;2023-04-25T10:10:35;5.43;;;4.10;;
6832;SDS011;3454;42.654;23.378;2023-04-25T10:13:03;6.95;;;4.50;;
6832;SDS011;3454;42.654;23.378;2023-04-25T10:15:31;5.40;;;4.15;;
6832;SDS011;3454;42.654;23.378;2023-04-25T10:18:00;5.03;;;3.78;;
6832;SDS011;3454;42.654;23.378;2023-04-25T10:20:26;5.05;;;3.90;;
6832;SDS011;3454;42.654;23.378;2023-04-25T10:22:52;6.75;;;4.03;;
6832;SDS011;3454;42.654;23.378;2023-04-25T10:25:22;7.07;;;3.85;;
6832;SDS011;3454;42.654;23.378;2023-04-25T10:27:50;5.97;;;4.32;;
6832;SDS011;3454;42.654;23.378;2023-04-25T10:30:16;7.35;;;4.90;;
6832;SDS011;3454;42.654;23.378;2023-04-25T10:32:43;7.32;;;4.20;;
6832;SDS011;3454;42.654;23.378;2023-04-25T10:35:11;7.90;;;3.97;;
6832;SDS011;3454;42.654;23.378;2023-04-25T10:37:36;10.15;;;6.22;;
6832;SDS011;3454;42.654;23.378;2023-04-25T10:40:08;5.70;;;4.00;;
6832;SDS011;3454;42.654;23.378;2023-04-25T10:42:35;5.15;;;4.10;;
6832;SDS011;3454;42.654;23.378;2023-04-25T10:45:06;5.55;;;4.10;;
6832;SDS011;3454;42.654;23.378;2023-04-25T10:47:35;7.15;;;4.78;;
6832;SDS011;3454;42.654;23.378;2023-04-25T10:50:05;7.40;;;4.25;;
6832;SDS011;3454;42.654;23.378;2023-04-25T10:52:33;5.03;;;3.55;;
6832;SDS011;3454;42.654;23.378;2023-04-25T10:54:58;8.40;;;3.63;;
6832;SDS011;3454;42.654;23.378;2023-04-25T10:57:40;3.33;;;2.60;;
6832;SDS011;3454;42.654;23.378;2023-04-25T11:02:37;3.35;;;2.03;;
6832;SDS011;3454;42.654;23.378;2023-04-25T11:05:10;2.38;;;1.60;;
6832;SDS011;3454;42.654;23.378;2023-04-25T11:07:51;3.25;;;1.70;;
6832;SDS011;3454;42.654;23.378;2023-04-25T11:10:19;2.47;;;1.58;;
6832;SDS011;3454;42.654;23.378;2023-04-25T11:12:49;2.75;;;1.85;;
6832;SDS011;3454;42.654;23.378;2023-04-25T11:15:15;6.78;;;1.48;;
6832;SDS011;3454;42.654;23.378;2023-04-25T11:17:41;5.47;;;1.30;;
6832;SDS011;3454;42.654;23.378;2023-04-25T11:20:08;2.60;;;1.67;;
6832;SDS011;3454;42.654;23.378;2023-04-25T11:22:37;2.05;;;1.40;;
6832;SDS011;3454;42.654;23.378;2023-04-25T11:25:07;2.33;;;1.70;;
6832;SDS011;3454;42.654;23.378;2023-04-25T11:27:33;2.28;;;1.50;;
6832;SDS011;3454;42.654;23.378;2023-04-25T11:30:09;2.70;;;1.77;;
6832;SDS011;3454;42.654;23.378;2023-04-25T11:32:39;4.53;;;1.52;;
6832;SDS011;3454;42.654;23.378;2023-04-25T11:35:06;4.65;;;1.92;;
6832;SDS011;3454;42.654;23.378;2023-04-25T11:37:32;2.35;;;1.58;;
6832;SDS011;3454;42.654;23.378;2023-04-25T11:39:59;5.18;;;1.77;;
6832;SDS011;3454;42.654;23.378;2023-04-25T11:42:25;3.33;;;2.28;;
6832;SDS011;3454;42.654;23.378;2023-04-25T11:44:51;6.53;;;2.28;;
6832;SDS011;3454;42.654;23.378;2023-04-25T11:47:17;5.28;;;2.65;;
6832;SDS011;3454;42.654;23.378;2023-04-25T11:49:42;4.68;;;2.35;;
6832;SDS011;3454;42.654;23.378;2023-04-25T11:52:08;3.63;;;2.08;;
6832;SDS011;3454;42.654;23.378;2023-04-25T11:54:36;2.72;;;1.75;;
6832;SDS011;3454;42.654;23.378;2023-04-25T11:57:02;2.92;;;1.83;;
6832;SDS011;3454;42.654;23.378;2023-04-25T11:59:29;3.03;;;0.73;;
6832;SDS011;3454;42.654;23.378;2023-04-25T12:01:54;4.30;;;0.90;;
6832;SDS011;3454;42.654;23.378;2023-04-25T12:04:24;2.10;;;1.05;;
6832;SDS011;3454;42.654;23.378;2023-04-25T12:06:51;0.70;;;0.70;;
6832;SDS011;3454;42.654;23.378;2023-04-25T12:09:19;1.13;;;1.02;;
6832;SDS011;3454;42.654;23.378;2023-04-25T12:11:55;1.08;;;0.65;;
6832;SDS011;3454;42.654;23.378;2023-04-25T12:14:23;1.30;;;0.90;;
6832;SDS011;3454;42.654;23.378;2023-04-25T12:16:57;2.20;;;0.90;;
6832;SDS011;3454;42.654;23.378;2023-04-25T12:19:24;0.50;;;0.50;;
6832;SDS011;3454;42.654;23.378;2023-04-25T12:21:51;1.03;;;0.83;;
6832;SDS011;3454;42.654;23.378;2023-04-25T12:24:24;1.50;;;0.90;;
6832;SDS011;3454;42.654;23.378;2023-04-25T12:26:52;1.35;;;1.00;;
6832;SDS011;3454;42.654;23.378;2023-04-25T12:29:24;2.00;;;1.33;;
6832;SDS011;3454;42.654;23.378;2023-04-25T12:31:51;2.47;;;0.82;;
6832;SDS011;3454;42.654;23.378;2023-04-25T12:34:18;0.95;;;0.88;;
6832;SDS011;3454;42.654;23.378;2023-04-25T12:36:44;1.17;;;1.08;;
6832;SDS011;3454;42.654;23.378;2023-04-25T12:39:16;1.98;;;0.88;;
6832;SDS011;3454;42.654;23.378;2023-04-25T12:41:48;1.02;;;0.93;;
6832;SDS011;3454;42.654;23.378;2023-04-25T12:44:20;1.02;;;0.93;;
6832;SDS011;3454;42.654;23.378;2023-04-25T12:46:46;2.13;;;1.40;;
6832;SDS011;3454;42.654;23.378;2023-04-25T12:49:12;2.33;;;0.80;;
6832;SDS011;3454;42.654;23.378;2023-04-25T12:51:37;2.67;;;1.00;;
6832;SDS011;3454;42.654;23.378;2023-04-25T12:54:03;1.65;;;1.00;;
6832;SDS011;3454;42.654;23.378;2023-04-25T12:56:30;1.98;;;0.80;;
6832;SDS011;3454;42.654;23.378;2023-04-25T12:58:56;1.27;;;0.85;;
6832;SDS011;3454;42.654;23.378;2023-04-25T13:01:23;1.35;;;0.82;;
6832;SDS011;3454;42.654;23.378;2023-04-25T13:03:49;2.22;;;1.10;;
6832;SDS011;3454;42.654;23.378;2023-04-25T13:06:15;1.50;;;0.90;;
6832;SDS011;3454;42.654;23.378;2023-04-25T13:08:41;3.30;;;1.08;;
6832;SDS011;3454;42.654;23.378;2023-04-25T13:11:07;4.53;;;0.70;;
6832;SDS011;3454;42.654;23.378;2023-04-25T13:13:33;3.72;;;1.25;;
6832;SDS011;3454;42.654;23.378;2023-04-25T13:16:02;3.67;;;1.00;;
6832;SDS011;3454;42.654;23.378;2023-04-25T13:18:29;2.40;;;1.02;;
6832;SDS011;3454;42.654;23.378;2023-04-25T13:20:55;1.23;;;0.98;;
6832;SDS011;3454;42.654;23.378;2023-04-25T13:23:22;1.63;;;1.27;;
6832;SDS011;3454;42.654;23.378;2023-04-25T13:25:48;4.32;;;1.55;;
6832;SDS011;3454;42.654;23.378;2023-04-25T13:28:14;2.20;;;1.00;;
6832;SDS011;3454;42.654;23.378;2023-04-25T13:30:40;2.53;;;1.30;;
6832;SDS011;3454;42.654;23.378;2023-04-25T13:33:06;3.47;;;1.00;;
6832;SDS011;3454;42.654;23.378;2023-04-25T13:35:32;4.70;;;1.60;;
6832;SDS011;3454;42.654;23.378;2023-04-25T13:37:58;3.23;;;1.30;;
6832;SDS011;3454;42.654;23.378;2023-04-25T13:40:24;1.80;;;1.57;;
6832;SDS011;3454;42.654;23.378;2023-04-25T13:42:50;1.80;;;1.43;;
6832;SDS011;3454;42.654;23.378;2023-04-25T13:45:16;3.13;;;1.77;;
6832;SDS011;3454;42.654;23.378;2023-04-25T13:47:41;3.63;;;2.03;;
6832;SDS011;3454;42.654;23.378;2023-04-25T13:50:07;2.27;;;1.50;;
6832;SDS011;3454;42.654;23.378;2023-04-25T13:52:32;3.83;;;1.53;;
6832;SDS011;3454;42.654;23.378;2023-04-25T13:54:58;2.40;;;1.80;;
6832;SDS011;3454;42.654;23.378;2023-04-25T13:57:24;4.47;;;1.57;;
6832;SDS011;3454;42.654;23.378;2023-04-25T13:59:50;3.93;;;1.43;;
6832;SDS011;3454;42.654;23.378;2023-04-25T14:02:16;2.23;;;1.07;;
6832;SDS011;3454;42.654;23.378;2023-04-25T14:04:41;1.53;;;1.30;;
6832;SDS011;3454;42.654;23.378;2023-04-25T14:07:07;1.50;;;1.20;;
6832;SDS011;3454;42.654;23.378;2023-04-25T14:09:33;2.67;;;1.23;;
6832;SDS011;3454;42.654;23.378;2023-04-25T14:11:59;2.23;;;1.47;;
6832;SDS011;3454;42.654;23.378;2023-04-25T14:14:24;1.23;;;1.13;;
6832;SDS011;3454;42.654;23.378;2023-04-25T14:16:50;2.63;;;1.10;;
6832;SDS011;3454;42.654;23.378;2023-04-25T14:19:18;2.05;;;1.02;;
6832;SDS011;3454;42.654;23.378;2023-04-25T14:21:44;1.08;;;0.98;;
6832;SDS011;3454;42.654;23.378;2023-04-25T14:24:09;2.25;;;0.75;;
6832;SDS011;3454;42.654;23.378;2023-04-25T14:26:38;0.80;;;0.80;;
6832;SDS011;3454;42.654;23.378;2023-04-25T14:29:04;1.25;;;1.10;;
6832;SDS011;3454;42.654;23.378;2023-04-25T14:31:31;0.93;;;0.82;;
6832;SDS011;3454;42.654;23.378;2023-04-25T14:33:57;1.85;;;1.20;;
6832;SDS011;3454;42.654;23.378;2023-04-25T14:36:22;0.90;;;0.70;;
6832;SDS011;3454;42.654;23.378;2023-04-25T14:38:48;1.00;;;0.80;;
6832;SDS011;3454;42.654;23.378;2023-04-25T14:41:13;2.45;;;0.80;;
6832;SDS011;3454;42.654;23.378;2023-04-25T14:43:39;0.90;;;0.80;;
6832;SDS011;3454;42.654;23.378;2023-04-25T14:46:08;1.70;;;0.80;;
6832;SDS011;3454;42.654;23.378;2023-04-25T14:48:34;2.58;;;1.13;;
6832;SDS011;3454;42.654;23.378;2023-04-25T14:51:00;0.70;;;0.70;;
6832;SDS011;3454;42.654;23.378;2023-04-25T14:53:26;1.30;;;1.20;;
6832;SDS011;3454;42.654;23.378;2023-04-25T14:55:52;1.05;;;1.05;;
6832;SDS011;3454;42.654;23.378;2023-04-25T14:58:17;1.30;;;1.13;;